This is the latest recevied weather packets stored in our database for station/object EA3GKP-10. If no packets are shown the sender has not sent any weather packets the latest 1 day(s).
| Time | Temp. | Humidity | Pressure | Rain* | Wind** | Luminosity | Snow |
|---|---|---|---|---|---|---|---|
| 1836274642 | 25° C | - | - | 0 mm | 0.89 m/s, 77° | - | - |
| 1836274504 | 25° C | - | - | 0 mm | 1.34 m/s, 125° | - | - |
| 1836274339 | 26.11° C | - | - | 0 mm | 0.89 m/s, 141° | - | - |
| 1836274200 | 25° C | - | - | 0 mm | 0.89 m/s, 89° | - | - |
| 1778062134 | 20.56° C | - | - | 0 mm | 0.45 m/s, 359° | - | - |
| 1778061831 | 20.56° C | - | - | 0 mm | 0 m/s | - | - |
| 1778061529 | 20.56° C | - | - | 0 mm | 2.68 m/s, 359° | - | - |
| 1778061225 | 20.56° C | - | - | 0 mm | 3.13 m/s, 75° | - | - |
| 1778060923 | 20.56° C | - | - | 0 mm | 2.24 m/s, 111° | - | - |
| 1778060620 | 20° C | - | - | 0 mm | 2.68 m/s, 75° | - | - |
| 1778060317 | 20° C | - | - | 0 mm | 3.13 m/s, 44° | - | - |
| 1778060014 | 20° C | - | - | 0 mm | 3.13 m/s, 110° | - | - |
| 1778059708 | 20.56° C | - | - | 0 mm | 2.68 m/s, 103° | - | - |
| 1778059405 | 20.56° C | - | - | 0 mm | 2.24 m/s, 177° | - | - |
| 1778058799 | 20.56° C | - | - | 0 mm | 3.13 m/s, 108° | - | - |
| 1778058492 | 20° C | - | - | 0 mm | 2.68 m/s, 83° | - | - |
| 1778058189 | 20° C | - | - | 0 mm | 2.24 m/s, 150° | - | - |
| 1778057889 | 19.44° C | - | - | 0 mm | 2.24 m/s, 83° | - | - |
| 1778057582 | 20° C | - | - | 0 mm | 1.79 m/s, 76° | - | - |
| 1778057279 | 19.44° C | - | - | 0 mm | 0.89 m/s, 76° | - | - |
| 1778056671 | 19.44° C | - | - | 0 mm | 0 m/s | - | - |
| 1778056368 | 19.44° C | - | - | 0 mm | 1.79 m/s, 82° | - | - |
| 1778056061 | 19.44° C | - | - | 0 mm | 1.34 m/s, 128° | - | - |
| 1778055758 | 20° C | - | - | 0 mm | 0 m/s | - | - |
| 1778055455 | 19.44° C | - | - | 0 mm | 0 m/s | - | - |
* Rain latest hour (hover to see other rain measurements)
** Current wind speed in m/s (hover to see current wind gust speed)